Time;durP1;ratioP1;P1;durP2;ratioP2;P2;SDS_P1;SDS_P2;PMS_P1;PMS_P2;Temp;Humidity;BMP_temperature;BMP_pressure;BME280_temperature;BME280_humidity;BME280_pressure;Samples;Min_cycle;Max_cycle;Signal;HPM_P1;HPM_P2
2021/12/23 00:01:36;;;;;;;9.47;3.30;;;;;;;-14.09;47.38;98920.91;4936641;29;20083;-75
2021/12/23 00:04:02;;;;;;;10.87;3.27;;;;;;;-14.04;47.23;98919.53;4946954;28;20480;-75
2021/12/23 00:06:28;;;;;;;11.67;3.27;;;;;;;-13.99;47.24;98922.56;4947477;29;20053;-75
2021/12/23 00:08:57;;;;;;;7.90;2.60;;;;;;;-13.96;47.32;98921.47;4952883;29;20051;-74
2021/12/23 00:11:23;;;;;;;13.67;3.27;;;;;;;-14.00;47.37;98920.91;4953276;28;20534;-75
2021/12/23 00:13:59;;;;;;;10.07;2.40;;;;;;;-14.05;47.74;98920.50;4947940;28;20047;-74
2021/12/23 00:16:41;;;;;;;8.35;2.88;;;;;;;-14.11;47.91;98915.81;4950557;29;20039;-74
2021/12/23 00:19:20;;;;;;;6.87;2.50;;;;;;;-14.11;48.16;98916.63;4961010;28;20047;-75
2021/12/23 00:24:31;;;;;;;16.50;2.80;;;;;;;-13.99;47.75;98898.91;4949609;28;20047;-77
2021/12/23 00:26:57;;;;;;;10.37;2.90;;;;;;;-13.93;47.55;98897.53;4945105;28;20612;-74
2021/12/23 00:29:23;;;;;;;13.33;3.03;;;;;;;-13.90;47.70;98888.56;4952175;28;20047;-73
2021/12/23 00:31:49;;;;;;;9.23;3.03;;;;;;;-13.89;47.81;98896.31;4947546;29;20043;-74
2021/12/23 00:34:17;;;;;;;11.40;3.33;;;;;;;-13.84;47.41;98894.09;4948136;29;20062;-70
2021/12/23 00:36:45;;;;;;;13.57;3.85;;;;;;;-13.76;47.72;98884.66;4952176;28;20134;-70
2021/12/23 00:39:13;;;;;;;10.73;3.17;;;;;;;-13.69;47.83;98888.41;4946068;29;20052;-70
2021/12/23 00:41:41;;;;;;;7.87;2.77;;;;;;;-13.74;47.89;98875.66;4962391;28;20058;-70
2021/12/23 00:44:07;;;;;;;8.70;2.70;;;;;;;-13.70;47.63;98873.59;4942705;29;20572;-70
2021/12/23 00:46:34;;;;;;;7.57;2.60;;;;;;;-13.61;47.63;98877.97;4950670;28;20067;-70
2021/12/23 00:49:00;;;;;;;10.47;3.03;;;;;;;-13.62;47.84;98870.25;4950678;28;20477;-70
2021/12/23 00:51:29;;;;;;;7.57;2.73;;;;;;;-13.58;47.96;98874.25;4950708;28;20111;-70
2021/12/23 00:54:04;;;;;;;8.90;2.40;;;;;;;-13.62;47.88;98863.19;4951096;28;20039;-69
2021/12/23 00:56:30;;;;;;;10.60;3.23;;;;;;;-13.48;47.96;98866.31;4950201;29;20441;-71
2021/12/23 00:58:56;;;;;;;9.73;3.20;;;;;;;-13.45;48.02;98871.31;4949253;28;20043;-70
2021/12/23 01:01:22;;;;;;;6.93;2.33;;;;;;;-13.50;48.43;98871.75;4948190;28;20418;-70
2021/12/23 01:03:48;;;;;;;6.63;2.43;;;;;;;-13.52;48.52;98867.59;4950137;28;20052;-70
2021/12/23 01:06:14;;;;;;;7.07;2.07;;;;;;;-13.37;48.25;98881.06;4954101;29;20051;-70
2021/12/23 01:08:41;;;;;;;9.97;2.60;;;;;;;-13.34;48.21;98873.72;4950881;29;20097;-70
2021/12/23 01:11:10;;;;;;;7.10;2.30;;;;;;;-13.53;48.47;98850.97;4956120;29;20059;-70
2021/12/23 01:13:37;;;;;;;7.63;2.20;;;;;;;-13.47;48.34;98860.09;4969352;28;20044;-71
2021/12/23 01:16:14;;;;;;;10.88;2.67;;;;;;;-13.33;48.56;98883.28;4952299;29;20055;-70
2021/12/23 01:18:44;;;;;;;7.30;2.50;;;;;;;-13.29;49.14;98883.84;4950678;29;20049;-71
2021/12/23 01:21:17;;;;;;;10.70;2.57;;;;;;;-13.34;48.65;98886.06;4953841;28;20043;-70
2021/12/23 01:23:48;;;;;;;6.67;2.37;;;;;;;-13.35;48.96;98885.22;4949889;28;20098;-70
2021/12/23 01:26:19;;;;;;;7.30;2.30;;;;;;;-13.23;48.72;98893.78;4949059;29;20498;-71
2021/12/23 01:28:47;;;;;;;7.10;2.37;;;;;;;-13.17;48.73;98887.09;4928077;29;20246;-71
2021/12/23 01:31:13;;;;;;;7.53;2.10;;;;;;;-13.28;49.21;98896.00;4948971;29;20047;-70
2021/12/23 01:33:39;;;;;;;7.30;2.70;;;;;;;-13.25;49.00;98899.19;4947213;29;20567;-71
2021/12/23 01:36:05;;;;;;;7.43;1.80;;;;;;;-13.22;49.10;98895.44;4940312;29;20063;-70
2021/12/23 01:38:32;;;;;;;14.40;2.47;;;;;;;-13.17;48.81;98900.28;4947026;29;20051;-70
2021/12/23 01:40:59;;;;;;;10.63;2.60;;;;;;;-13.14;49.34;98899.97;4948332;28;20638;-70
2021/12/23 01:43:25;;;;;;;;;;;;;;;-13.11;49.31;98907.56;4950742;28;20043;-69
2021/12/23 01:45:51;;;;;;;8.60;2.40;;;;;;;-13.17;49.58;98898.47;4948309;29;19930;-70
2021/12/23 01:48:18;;;;;;;8.17;2.17;;;;;;;-13.22;49.79;98897.25;4950115;29;20067;-70
2021/12/23 01:50:45;;;;;;;6.03;2.33;;;;;;;-13.22;49.90;98895.44;4949356;28;20319;-69
2021/12/23 01:53:11;;;;;;;11.43;2.67;;;;;;;-13.19;49.86;98889.06;4961505;28;20055;-69
2021/12/23 01:55:39;;;;;;;9.13;2.50;;;;;;;-13.14;50.24;98886.81;4950385;28;20090;-70
2021/12/23 01:58:06;;;;;;;10.67;2.50;;;;;;;-13.18;50.28;98878.41;4954582;29;20047;-70
2021/12/23 02:00:35;;;;;;;8.90;2.53;;;;;;;-13.20;50.40;98887.41;4947488;29;20043;-70
2021/12/23 02:03:02;;;;;;;11.17;2.43;;;;;;;-13.22;50.88;98884.09;4947247;29;20043;-70
2021/12/23 02:05:31;;;;;;;7.40;2.30;;;;;;;-13.08;50.52;98886.25;4953583;29;20047;-71
2021/12/23 02:07:58;;;;;;;11.10;2.40;;;;;;;-12.97;50.42;98887.88;4951310;28;20044;-70
2021/12/23 02:10:24;;;;;;;9.60;2.53;;;;;;;-12.97;50.49;98878.16;4951527;28;20083;-71
2021/12/23 02:12:50;;;;;;;5.93;2.10;;;;;;;-12.90;50.63;98872.31;4952183;28;20341;-70
2021/12/23 02:15:21;;;;;;;9.10;2.83;;;;;;;-12.84;50.67;98885.72;4950772;28;20055;-70
2021/12/23 02:17:49;;;;;;;9.87;2.73;;;;;;;-12.79;50.78;98877.38;4955452;28;20134;-70
2021/12/23 02:20:18;;;;;;;9.00;2.70;;;;;;;-12.71;50.70;98881.94;4967795;28;20492;-70
2021/12/23 02:22:45;;;;;;;10.47;2.57;;;;;;;-12.77;51.17;98878.06;4958421;28;20051;-69
2021/12/23 02:25:12;;;;;;;12.73;2.10;;;;;;;-12.76;51.38;98873.63;4950736;29;20146;-70
2021/12/23 02:27:39;;;;;;;7.82;2.63;;;;;;;-12.76;51.38;98869.19;4954112;29;20055;-70
2021/12/23 02:30:10;;;;;;;7.35;2.40;;;;;;;-12.60;51.09;98860.63;4963512;28;20043;-70
2021/12/23 02:32:38;;;;;;;6.90;2.43;;;;;;;-12.55;51.16;98863.66;4952849;28;20048;-70
2021/12/23 02:35:04;;;;;;;;;;;;;;;-12.48;51.11;98865.69;4953408;28;20077;-70
2021/12/23 02:37:32;;;;;;;4.75;1.90;;;;;;;-12.38;50.87;98868.25;4947266;29;19974;-70
2021/12/23 02:39:58;;;;;;;6.90;2.28;;;;;;;-12.32;51.03;98862.41;4964233;28;20507;-70
2021/12/23 02:42:24;;;;;;;8.67;3.03;;;;;;;-12.33;51.13;98864.19;4949232;29;20517;-69
2021/12/23 02:44:52;;;;;;;10.00;2.30;;;;;;;-12.35;51.38;98874.06;4954105;28;20066;-70
2021/12/23 02:47:22;;;;;;;6.27;2.00;;;;;;;-12.42;51.70;98872.97;4953122;29;20051;-70
2021/12/23 02:49:48;;;;;;;11.57;2.67;;;;;;;-12.38;51.60;98868.25;4950128;29;20047;-70
2021/12/23 02:52:15;;;;;;;9.37;2.50;;;;;;;-12.35;52.27;98865.31;4952272;29;20432;-69
2021/12/23 02:54:43;;;;;;;10.50;2.53;;;;;;;-12.30;51.83;98879.69;4940231;29;20049;-71
2021/12/23 02:57:09;;;;;;;14.30;2.55;;;;;;;-12.37;52.14;98880.44;4950353;29;20112;-71
2021/12/23 02:59:35;;;;;;;8.33;2.50;;;;;;;-12.39;52.00;98875.34;4952696;28;20047;-71
2021/12/23 03:02:01;;;;;;;8.00;2.33;;;;;;;-12.23;51.98;98877.28;4950853;29;20039;-70
2021/12/23 03:04:27;;;;;;;9.27;2.70;;;;;;;-12.20;52.10;98877.00;4953326;29;20142;-70
2021/12/23 03:06:55;;;;;;;9.57;2.70;;;;;;;-12.17;51.96;98868.81;4948184;28;20486;-70
2021/12/23 03:09:21;;;;;;;8.20;2.30;;;;;;;-12.02;51.48;98871.72;4948042;29;20039;-71
2021/12/23 03:11:49;;;;;;;8.60;3.40;;;;;;;-11.92;51.32;98887.41;4953277;28;20043;-69
2021/12/23 03:14:15;;;;;;;10.82;2.67;;;;;;;-12.03;52.07;98880.63;4942668;29;20484;-71
2021/12/23 03:16:41;;;;;;;9.43;3.20;;;;;;;-12.16;51.91;98856.44;4966235;28;20432;-70
2021/12/23 03:19:07;;;;;;;10.17;2.70;;;;;;;-12.03;52.23;98870.06;4935525;29;20295;-71
2021/12/23 03:21:34;;;;;;;10.07;2.50;;;;;;;-11.88;51.88;98867.66;4951158;28;20051;-70
2021/12/23 03:24:00;;;;;;;8.33;2.77;;;;;;;-11.88;51.97;98859.75;4953060;29;20081;-69
2021/12/23 03:26:26;;;;;;;8.03;2.70;;;;;;;-11.88;52.11;98867.66;4963496;28;20355;-71
2021/12/23 03:28:54;;;;;;;9.27;2.47;;;;;;;-11.87;52.13;98861.41;4950719;29;20043;-70
2021/12/23 03:31:21;;;;;;;9.83;2.60;;;;;;;-11.83;52.14;98857.50;4934718;29;20397;-71
2021/12/23 03:33:46;;;;;;;10.53;2.90;;;;;;;-11.72;52.09;98848.50;4951926;28;20180;-70
2021/12/23 03:36:12;;;;;;;9.27;3.13;;;;;;;-11.79;52.12;98846.66;4950531;28;20051;-72
2021/12/23 03:38:39;;;;;;;10.13;3.03;;;;;;;-11.76;52.48;98833.16;4952020;29;20047;-72
2021/12/23 03:41:07;;;;;;;8.50;2.53;;;;;;;-11.74;52.29;98837.28;4953041;28;20055;-72
2021/12/23 03:43:34;;;;;;;10.40;2.90;;;;;;;-11.59;52.34;98837.53;4951629;28;20047;-70
2021/12/23 03:46:01;;;;;;;10.37;2.67;;;;;;;-11.62;52.63;98818.56;4945793;29;20049;-72
2021/12/23 03:48:30;;;;;;;8.25;2.63;;;;;;;-11.69;53.02;98832.38;4949862;29;20130;-70
2021/12/23 03:50:56;;;;;;;10.90;2.70;;;;;;;-11.73;53.46;98827.56;4951877;29;20408;-70
2021/12/23 03:53:22;;;;;;;9.37;2.97;;;;;;;-11.55;53.11;98840.69;4951577;28;20051;-70
2021/12/23 03:55:48;;;;;;;9.07;3.10;;;;;;;-11.52;53.04;98831.66;4958879;28;20087;-70
2021/12/23 03:58:14;;;;;;;8.03;2.40;;;;;;;-11.46;52.92;98829.22;4966911;28;20142;-70
2021/12/23 04:00:41;;;;;;;7.90;2.73;;;;;;;-11.44;53.13;98826.41;4950870;29;20047;-70
2021/12/23 04:03:09;;;;;;;7.80;2.63;;;;;;;-11.44;52.95;98807.94;4944796;28;20054;-71
2021/12/23 04:05:36;;;;;;;8.03;2.33;;;;;;;-11.31;53.01;98826.81;4938375;29;20118;-71
2021/12/23 04:08:02;;;;;;;9.57;3.03;;;;;;;-11.23;52.90;98817.31;4948919;29;20106;-71
2021/12/23 04:10:28;;;;;;;10.68;2.90;;;;;;;-11.22;52.89;98816.31;4958225;28;20363;-70
2021/12/23 04:12:55;;;;;;;8.13;3.03;;;;;;;-11.22;52.98;98821.59;4920430;29;20046;-70
2021/12/23 04:15:21;;;;;;;17.83;2.83;;;;;;;-11.12;52.93;98820.47;4949510;28;20058;-70
2021/12/23 04:17:48;;;;;;;10.73;2.90;;;;;;;-11.09;53.18;98815.88;4952477;28;20113;-69
2021/12/23 04:20:19;;;;;;;9.30;2.87;;;;;;;-10.99;52.76;98821.84;4948554;29;20115;-70
2021/12/23 04:22:47;;;;;;;8.43;2.30;;;;;;;-10.95;52.94;98817.06;4944362;29;20039;-70
2021/12/23 04:25:15;;;;;;;10.17;2.97;;;;;;;-11.14;53.62;98818.97;4947216;29;20536;-70
2021/12/23 04:27:42;;;;;;;11.63;2.80;;;;;;;-11.11;53.68;98813.38;4950425;29;20469;-69
2021/12/23 04:30:10;;;;;;;5.65;1.92;;;;;;;-11.15;53.96;98830.53;4948284;29;20055;-70
2021/12/23 04:32:39;;;;;;;7.60;2.22;;;;;;;-11.23;54.52;98833.13;4950554;28;20141;-69
2021/12/23 04:35:07;;;;;;;12.90;3.30;;;;;;;-11.17;54.04;98837.78;4948806;28;20059;-69
2021/12/23 04:37:34;;;;;;;8.57;2.67;;;;;;;-11.12;54.09;98824.91;4950396;28;20457;-70
2021/12/23 04:40:01;;;;;;;14.40;3.30;;;;;;;-10.94;53.62;98837.19;4949230;29;20133;-70
2021/12/23 04:42:27;;;;;;;9.83;3.43;;;;;;;-11.03;53.92;98834.53;4954039;29;20189;-70
2021/12/23 04:44:53;;;;;;;13.17;3.10;;;;;;;-10.90;53.74;98823.53;4947360;29;20058;-70
2021/12/23 04:47:19;;;;;;;7.90;2.43;;;;;;;-10.91;54.02;98826.34;4952477;29;20047;-70
2021/12/23 04:49:45;;;;;;;8.70;2.87;;;;;;;-10.78;53.92;98824.03;4946202;29;20052;-71
2021/12/23 04:52:11;;;;;;;11.40;3.43;;;;;;;-10.85;54.31;98829.16;4949975;29;20558;-70
2021/12/23 04:54:38;;;;;;;9.33;3.47;;;;;;;-10.78;54.54;98825.88;4950525;29;20058;-70
2021/12/23 04:57:06;;;;;;;11.90;4.47;;;;;;;-10.72;54.11;98823.41;4954850;29;20086;-70
2021/12/23 04:59:32;;;;;;;9.87;3.23;;;;;;;-10.83;54.70;98835.13;4951981;28;20401;-69
2021/12/23 05:01:58;;;;;;;12.30;3.43;;;;;;;-10.86;54.78;98831.97;4952267;29;20133;-69
2021/12/23 05:04:24;;;;;;;10.43;3.37;;;;;;;-10.87;54.80;98841.69;4947508;29;20524;-69
2021/12/23 05:06:50;;;;;;;14.13;4.27;;;;;;;-10.79;54.80;98835.59;4951518;29;20048;-69
2021/12/23 05:09:16;;;;;;;12.57;4.13;;;;;;;-10.74;54.77;98848.34;4950205;28;20579;-69
2021/12/23 05:11:44;;;;;;;12.97;3.93;;;;;;;-10.62;54.52;98844.41;4953617;28;20046;-69
2021/12/23 05:14:10;;;;;;;15.50;4.00;;;;;;;-10.46;54.58;98848.91;4952474;29;20412;-69
2021/12/23 05:16:37;;;;;;;12.87;4.30;;;;;;;-10.50;54.42;98844.94;4923976;29;20415;-70
2021/12/23 05:19:03;;;;;;;12.90;4.37;;;;;;;-10.46;54.60;98851.53;4958470;28;20047;-71
2021/12/23 05:21:29;;;;;;;12.77;4.10;;;;;;;-10.59;54.93;98854.66;4953680;29;20129;-71
2021/12/23 05:23:55;;;;;;;12.70;4.03;;;;;;;-10.49;54.79;98848.41;4953176;29;20142;-71
2021/12/23 05:26:21;;;;;;;14.83;4.00;;;;;;;-10.36;54.76;98832.03;4951976;28;20062;-70
2021/12/23 05:28:49;;;;;;;13.70;4.00;;;;;;;-10.26;54.79;98851.22;4953982;28;20141;-70
2021/12/23 05:31:15;;;;;;;13.10;3.95;;;;;;;-10.38;55.11;98863.09;4968241;28;20521;-70
2021/12/23 05:33:41;;;;;;;11.13;3.73;;;;;;;-10.24;55.20;98865.09;4951354;28;20058;-70
2021/12/23 05:36:08;;;;;;;12.90;4.13;;;;;;;-10.27;54.85;98865.44;4954428;29;20054;-70
2021/12/23 05:38:34;;;;;;;11.68;3.80;;;;;;;-10.36;55.66;98869.03;4961338;28;20623;-70
2021/12/23 05:41:00;;;;;;;9.67;3.60;;;;;;;-10.21;54.99;98870.06;4954418;28;20039;-70
2021/12/23 05:43:26;;;;;;;11.00;3.60;;;;;;;-10.32;55.46;98873.00;4960804;28;20052;-70
2021/12/23 05:45:53;;;;;;;11.33;3.70;;;;;;;-10.44;55.87;98836.38;4966203;28;20146;-70
2021/12/23 05:48:19;;;;;;;9.95;3.35;;;;;;;-10.24;55.26;98875.69;4953902;28;20126;-70
2021/12/23 05:50:45;;;;;;;14.57;4.03;;;;;;;-10.40;55.59;98850.88;4952320;28;20134;-70
2021/12/23 05:53:11;;;;;;;10.60;3.77;;;;;;;-10.16;55.55;98848.44;4946095;28;20147;-70
2021/12/23 05:55:37;;;;;;;14.47;4.03;;;;;;;-10.05;55.38;98869.28;4948067;29;20054;-69
2021/12/23 05:58:04;;;;;;;13.67;3.90;;;;;;;-10.08;55.07;98866.13;4955424;28;20126;-70
2021/12/23 06:00:32;;;;;;;13.07;3.53;;;;;;;-9.98;54.72;98866.78;4955073;28;20532;-69
2021/12/23 06:03:01;;;;;;;13.63;4.10;;;;;;;-10.00;54.93;98869.59;4962586;28;20426;-69
2021/12/23 06:05:28;;;;;;;11.63;3.93;;;;;;;-9.96;55.18;98872.75;4951409;29;20051;-69
2021/12/23 06:07:54;;;;;;;12.48;4.03;;;;;;;-10.03;55.01;98864.63;4953540;29;20620;-69
2021/12/23 06:10:20;;;;;;;25.43;5.13;;;;;;;-9.90;54.51;98876.56;4969357;28;20157;-70
2021/12/23 06:12:47;;;;;;;18.33;4.60;;;;;;;-10.02;55.51;98874.22;4951764;29;20051;-69
2021/12/23 06:15:13;;;;;;;14.70;3.55;;;;;;;-10.01;55.44;98857.38;4952907;28;20105;-69
2021/12/23 06:17:40;;;;;;;11.37;3.77;;;;;;;-9.97;55.55;98861.31;4953382;29;20039;-69
2021/12/23 06:20:09;;;;;;;10.27;3.53;;;;;;;-9.81;55.00;98875.53;4954490;28;20043;-69
2021/12/23 06:22:37;;;;;;;12.30;3.50;;;;;;;-9.94;55.15;98876.06;4952565;29;20137;-69
2021/12/23 06:25:04;;;;;;;10.20;3.03;;;;;;;-9.83;55.13;98859.84;4952802;28;20129;-70
2021/12/23 06:27:30;;;;;;;11.05;3.45;;;;;;;-9.76;54.68;98869.75;4954473;29;20753;-70
2021/12/23 06:29:56;;;;;;;9.17;3.40;;;;;;;-9.80;54.77;98858.69;4954546;29;20102;-70
2021/12/23 06:32:22;;;;;;;12.00;3.30;;;;;;;-9.81;55.19;98862.31;4948377;28;20047;-69
2021/12/23 06:34:49;;;;;;;8.93;3.43;;;;;;;-9.75;55.06;98866.13;4969074;28;20039;-69
2021/12/23 06:37:17;;;;;;;11.10;3.80;;;;;;;-9.72;54.94;98879.00;4969551;28;20143;-69
2021/12/23 06:39:44;;;;;;;14.43;3.90;;;;;;;-9.65;54.79;98869.44;4943915;29;20051;-70
2021/12/23 06:42:10;;;;;;;11.85;3.88;;;;;;;-9.65;55.00;98866.78;4952538;29;20102;-70
2021/12/23 06:44:36;;;;;;;10.50;3.77;;;;;;;-9.65;55.41;98863.31;4948355;28;20046;-69
2021/12/23 06:47:02;;;;;;;10.93;3.50;;;;;;;-9.43;55.19;98859.13;4951367;29;20039;-69
2021/12/23 06:49:31;;;;;;;10.70;3.80;;;;;;;-9.44;54.81;98845.09;4946263;29;20039;-70
2021/12/23 06:51:59;;;;;;;12.83;3.87;;;;;;;-9.40;54.73;98861.44;4950353;28;20086;-75
2021/12/23 06:54:27;;;;;;;12.80;4.03;;;;;;;-9.32;54.43;98866.75;4942426;29;20051;-75
2021/12/23 06:56:53;;;;;;;11.35;3.85;;;;;;;-9.37;54.62;98863.75;4953880;29;20047;-75
2021/12/23 06:59:19;;;;;;;12.53;3.73;;;;;;;-9.46;54.86;98859.47;4952041;28;20135;-75
2021/12/23 07:01:48;;;;;;;13.40;4.17;;;;;;;-9.46;54.88;98857.63;4952775;28;20099;-75
2021/12/23 07:04:17;;;;;;;14.23;4.23;;;;;;;-9.45;54.75;98861.94;4944595;28;20051;-75
2021/12/23 07:06:55;;;;;;;14.77;4.70;;;;;;;-9.38;54.71;98869.22;4950626;29;20407;-76
2021/12/23 07:09:21;;;;;;;10.97;4.57;;;;;;;-9.40;55.01;98866.75;4945662;29;20044;-74
2021/12/23 07:11:52;;;;;;;12.07;4.57;;;;;;;-9.30;54.88;98869.19;4950071;29;20046;-75
2021/12/23 07:14:20;;;;;;;14.27;4.50;;;;;;;-9.20;54.33;98863.75;4948876;29;20058;-75
2021/12/23 07:16:46;;;;;;;11.48;3.95;;;;;;;-9.24;54.70;98873.00;4947997;29;20054;-75
2021/12/23 07:19:12;;;;;;;12.37;4.23;;;;;;;-9.17;54.54;98866.84;4949517;29;20043;-76
2021/12/23 07:21:38;;;;;;;12.00;4.40;;;;;;;-9.06;54.61;98860.34;4945686;28;20051;-76
2021/12/23 07:24:04;;;;;;;15.93;4.17;;;;;;;-9.05;54.57;98866.50;4948554;28;20051;-75
2021/12/23 07:26:30;;;;;;;14.37;4.47;;;;;;;-9.02;54.40;98877.59;4947317;28;20043;-76
2021/12/23 07:28:59;;;;;;;12.93;4.97;;;;;;;-8.98;54.49;98876.25;4935816;29;20042;-75
2021/12/23 07:31:31;;;;;;;12.77;4.77;;;;;;;-8.94;54.16;98879.38;4950647;29;20464;-75
2021/12/23 07:34:00;;;;;;;13.37;5.07;;;;;;;-8.95;54.35;98874.25;4950394;28;20519;-75
2021/12/23 07:36:27;;;;;;;14.37;4.87;;;;;;;-8.85;53.85;98885.47;4942827;29;20054;-75
2021/12/23 07:38:53;;;;;;;18.60;4.80;;;;;;;-8.89;54.16;98876.22;4950105;29;20053;-75
2021/12/23 07:41:19;;;;;;;9.63;3.80;;;;;;;-8.81;53.82;98870.06;4951554;28;20047;-76
2021/12/23 07:46:26;;;;;;;14.33;4.73;;;;;;;-8.63;53.79;98880.41;4944565;29;20048;-76
2021/12/23 07:48:52;;;;;;;19.70;4.60;;;;;;;-8.51;53.41;98868.41;4949818;29;20508;-75
2021/12/23 07:51:19;;;;;;;16.00;4.63;;;;;;;-8.60;53.17;98861.50;4949532;28;20085;-76
2021/12/23 07:53:45;;;;;;;19.90;5.30;;;;;;;-8.52;53.28;98856.16;4945285;29;20062;-75
2021/12/23 07:56:11;;;;;;;12.67;4.37;;;;;;;-8.44;53.12;98864.03;4951866;28;20059;-75
2021/12/23 07:58:37;;;;;;;28.23;4.40;;;;;;;-8.43;53.26;98846.31;4948159;29;20073;-74
2021/12/23 08:01:03;;;;;;;10.73;4.17;;;;;;;-8.42;53.44;98846.16;4949581;28;20047;-74
2021/12/23 08:03:30;;;;;;;11.40;4.20;;;;;;;-8.31;52.75;98842.25;4952131;28;20047;-75
2021/12/23 08:05:56;;;;;;;15.95;6.65;;;;;;;-8.24;53.04;98863.59;4932704;29;20512;-75
2021/12/23 08:08:23;;;;;;;17.37;6.13;;;;;;;-8.09;52.77;98854.88;4937917;29;20039;-74
2021/12/23 08:10:50;;;;;;;16.47;5.77;;;;;;;-8.01;52.58;98849.50;4951148;28;20526;-68
2021/12/23 08:13:16;;;;;;;18.55;6.35;;;;;;;-7.92;52.19;98860.88;4952591;28;20066;-70
2021/12/23 08:15:42;;;;;;;15.63;6.23;;;;;;;-7.78;51.98;98857.44;4958185;28;20061;-70
2021/12/23 08:18:08;;;;;;;18.93;5.23;;;;;;;-7.71;52.29;98849.59;4955096;28;20445;-69
2021/12/23 08:20:36;;;;;;;23.57;5.47;;;;;;;-7.58;51.72;98843.66;4959167;28;20142;-70
2021/12/23 08:23:07;;;;;;;10.40;4.30;;;;;;;-7.48;51.62;98843.44;4956373;28;20511;-70
2021/12/23 08:25:39;;;;;;;14.53;4.50;;;;;;;-7.49;51.75;98845.25;4955067;29;20062;-69
2021/12/23 08:28:07;;;;;;;12.40;5.00;;;;;;;-7.39;51.10;98841.53;4958613;28;20520;-70
2021/12/23 08:30:34;;;;;;;11.63;4.70;;;;;;;-7.11;50.93;98844.38;4953809;28;20048;-69
2021/12/23 08:33:00;;;;;;;15.43;5.40;;;;;;;-6.92;50.16;98837.66;4969688;28;20055;-70
2021/12/23 08:35:26;;;;;;;12.90;4.50;;;;;;;-6.83;50.01;98835.75;4950558;29;20097;-70
2021/12/23 08:37:54;;;;;;;13.10;4.53;;;;;;;-6.75;50.15;98838.28;4958201;28;20426;-70
2021/12/23 08:40:23;;;;;;;20.63;4.68;;;;;;;-6.75;49.80;98829.50;4974141;28;20222;-72
2021/12/23 08:42:50;;;;;;;12.47;4.10;;;;;;;-6.68;49.59;98840.22;4955774;28;20047;-69
2021/12/23 08:45:16;;;;;;;10.67;4.00;;;;;;;-6.60;49.44;98834.78;4957947;28;20051;-68
2021/12/23 08:47:43;;;;;;;12.83;4.80;;;;;;;-6.54;49.28;98818.06;4959131;28;20046;-70
2021/12/23 08:50:11;;;;;;;17.43;4.13;;;;;;;-6.29;49.01;98834.50;4957517;28;20065;-70
2021/12/23 08:52:38;;;;;;;15.97;6.10;;;;;;;-6.18;48.58;98819.03;4959534;28;20051;-70
2021/12/23 08:55:07;;;;;;;17.67;5.10;;;;;;;-6.10;48.33;98828.72;4968062;28;20052;-69
2021/12/23 08:57:34;;;;;;;12.07;4.20;;;;;;;-5.99;48.25;98831.72;4955756;28;20075;-70
2021/12/23 09:00:00;;;;;;;16.77;4.33;;;;;;;-5.88;48.01;98835.69;4953543;29;20051;-66
2021/12/23 09:02:26;;;;;;;14.27;4.43;;;;;;;-5.87;47.91;98826.69;4956446;28;20443;-70
2021/12/23 09:04:52;;;;;;;12.97;4.50;;;;;;;-5.80;47.38;98826.75;4958621;28;20571;-70
2021/12/23 09:07:18;;;;;;;16.77;4.33;;;;;;;-5.80;47.59;98831.22;4951878;28;20103;-70
2021/12/23 09:09:50;;;;;;;10.17;3.27;;;;;;;-5.71;47.53;98827.44;4956846;28;20047;-70
2021/12/23 09:12:18;;;;;;;9.73;3.13;;;;;;;-5.61;47.24;98838.59;4940283;29;20047;-70
2021/12/23 09:14:44;;;;;;;10.97;3.87;;;;;;;-5.56;46.99;98843.31;4958440;28;20055;-69
2021/12/23 09:17:11;;;;;;;10.70;3.40;;;;;;;-5.48;46.83;98837.00;4958922;28;20055;-69
2021/12/23 09:19:37;;;;;;;10.20;3.47;;;;;;;-5.65;46.81;98816.00;4950124;28;20119;-72
2021/12/23 09:22:04;;;;;;;13.23;3.90;;;;;;;-5.36;46.11;98838.13;4955808;28;20061;-71
2021/12/23 09:24:31;;;;;;;;;;;;;;;-5.34;46.01;98832.63;4957420;28;20052;-70
2021/12/23 09:27:09;;;;;;;12.27;3.17;;;;;;;-5.13;45.46;98840.53;4953817;29;19926;-71
2021/12/23 09:34:59;;;;;;;9.23;3.42;;;;;;;-4.97;44.91;98829.75;4953471;28;20062;-71
2021/12/23 09:37:26;;;;;;;11.02;3.28;;;;;;;-4.78;45.60;98825.53;4970354;28;20082;-70
2021/12/23 09:39:54;;;;;;;9.23;3.35;;;;;;;-4.85;45.42;98833.50;4940883;28;20047;-69
2021/12/23 09:42:24;;;;;;;12.60;3.40;;;;;;;-4.93;45.31;98818.47;4953572;28;20055;-70
2021/12/23 09:44:56;;;;;;;17.17;3.80;;;;;;;-4.71;45.31;98829.88;4949664;29;20051;-70
2021/12/23 09:47:25;;;;;;;9.97;3.40;;;;;;;-4.81;45.10;98821.44;4954399;28;20043;-69
2021/12/23 09:49:52;;;;;;;11.03;3.23;;;;;;;-4.71;44.68;98821.84;4953705;28;20122;-66
2021/12/23 09:52:19;;;;;;;12.77;3.38;;;;;;;-4.64;44.80;98821.09;4952604;29;20082;-68
2021/12/23 09:54:45;;;;;;;10.20;3.60;;;;;;;-4.70;44.99;98804.03;4955103;29;20306;-66
2021/12/23 09:57:12;;;;;;;20.00;3.73;;;;;;;-4.61;44.62;98810.81;4955635;29;20059;-67
2021/12/23 09:59:40;;;;;;;9.47;3.27;;;;;;;-4.32;44.05;98802.69;4953594;29;20055;-67
2021/12/23 10:02:07;;;;;;;11.70;3.97;;;;;;;-4.33;43.72;98803.72;4965955;28;20300;-67
2021/12/23 10:04:34;;;;;;;10.60;3.85;;;;;;;-4.09;43.72;98807.66;4949785;29;20575;-65
2021/12/23 10:07:00;;;;;;;9.53;3.73;;;;;;;-3.89;43.23;98802.34;4954952;28;20137;-65
2021/12/23 10:09:58;;;;;;;12.47;4.27;;;;;;;-3.66;42.89;98805.66;4953461;29;20047;-65
2021/12/23 10:31:26;;;;;;;9.80;3.70;;;;;;;-1.55;39.40;98808.00;4937093;29;20086;-70
2021/12/23 10:37:14;;;;;;;9.87;3.50;;;;;;;-2.43;40.75;98797.88;4947337;29;20058;-70
2021/12/23 10:39:43;;;;;;;10.37;3.40;;;;;;;-2.91;41.14;98812.50;4953953;28;20566;-70
2021/12/23 10:42:11;;;;;;;12.63;3.90;;;;;;;-3.28;41.38;98796.94;4952440;28;20035;-70
2021/12/23 10:44:38;;;;;;;11.43;4.40;;;;;;;-3.72;41.86;98792.06;4964474;28;20043;-69
2021/12/23 10:47:06;;;;;;;9.83;4.03;;;;;;;-3.91;42.28;98803.56;4970375;28;20051;-70
2021/12/23 10:49:47;;;;;;;10.10;3.80;;;;;;;-4.13;42.50;98793.91;4934961;29;20047;-72
2021/12/23 10:52:19;;;;;;;12.37;3.70;;;;;;;-4.24;42.90;98805.16;4948217;29;20118;-71
2021/12/23 11:00:18;;;;;;;10.57;3.97;;;;;;;-4.81;43.51;98794.75;4934208;29;20043;-70
2021/12/23 11:02:59;;;;;;;12.40;4.37;;;;;;;-4.90;43.70;98796.78;4950498;28;20059;-71
2021/12/23 11:05:33;;;;;;;10.40;3.80;;;;;;;-4.94;43.99;98802.69;4934852;29;20503;-72
2021/12/23 11:46:15;;;;;;;16.15;6.00;;;;;;;-5.44;44.79;98790.34;4933681;29;20059;-70
2021/12/23 11:48:46;;;;;;;12.60;4.65;;;;;;;-5.47;44.99;98786.19;4940969;28;20518;-70
2021/12/23 11:51:20;;;;;;;11.67;4.53;;;;;;;-5.58;45.15;98774.25;4951598;29;20043;-70
2021/12/23 11:53:49;;;;;;;12.07;4.33;;;;;;;-5.49;45.22;98784.75;4951702;29;20054;-71
2021/12/23 11:56:17;;;;;;;10.13;3.37;;;;;;;-5.62;45.64;98781.00;4965111;28;20412;-70
2021/12/23 11:58:46;;;;;;;12.13;4.20;;;;;;;-5.60;45.58;98783.44;4946207;29;20455;-70
2021/12/23 12:01:18;;;;;;;9.43;3.73;;;;;;;-5.64;45.53;98790.19;4951259;28;20555;-70
2021/12/23 12:04:00;;;;;;;12.30;4.10;;;;;;;-5.94;46.08;98783.19;4953434;29;20139;-70
2021/12/23 12:06:30;;;;;;;9.90;3.30;;;;;;;-5.91;46.03;98780.16;4946967;28;20480;-70
2021/12/23 12:09:12;;;;;;;8.97;3.00;;;;;;;-5.96;45.88;98777.22;4948156;29;20121;-70
2021/12/23 12:11:47;;;;;;;8.20;3.03;;;;;;;-5.95;46.26;98772.75;4952810;28;20055;-70
2021/12/23 12:14:42;;;;;;;8.93;3.50;;;;;;;-6.07;46.50;98775.16;4953312;28;20129;-70
2021/12/23 12:17:33;;;;;;;12.40;3.67;;;;;;;-6.08;46.61;98770.84;4944679;29;20097;-70
2021/12/23 12:20:03;;;;;;;10.93;3.70;;;;;;;-6.19;47.01;98773.00;4951489;29;20142;-70
2021/12/23 12:22:54;;;;;;;10.10;3.33;;;;;;;-6.26;46.95;98772.09;4953484;28;20504;-71
2021/12/23 12:25:53;;;;;;;11.43;4.13;;;;;;;-6.39;47.13;98779.97;4948042;28;20423;-70
2021/12/23 12:28:25;;;;;;;10.50;3.70;;;;;;;-6.48;47.55;98782.72;4929908;28;20146;-70
2021/12/23 12:30:56;;;;;;;10.87;4.20;;;;;;;-6.67;47.98;98776.19;4949924;29;20051;-70
2021/12/23 12:33:59;;;;;;;10.87;3.97;;;;;;;-6.62;47.47;98780.94;4948690;28;20047;-70
2021/12/23 12:36:29;;;;;;;14.40;4.30;;;;;;;-6.64;47.78;98782.97;4934295;29;20048;-70
2021/12/23 12:38:57;;;;;;;14.07;4.60;;;;;;;-6.68;47.71;98784.38;4947263;29;20526;-70
2021/12/23 12:41:31;;;;;;;12.10;3.80;;;;;;;-6.75;47.72;98779.78;4952600;28;20063;-70
2021/12/23 12:44:06;;;;;;;14.53;4.47;;;;;;;-6.97;48.60;98781.56;4945681;29;20047;-70
2021/12/23 12:46:57;;;;;;;14.77;3.83;;;;;;;-7.26;49.13;98796.53;4947978;29;20071;-70